Time;durP1;ratioP1;P1;durP2;ratioP2;P2;SDS_P1;SDS_P2;PMS_P1;PMS_P2;Temp;Humidity;BMP_temperature;BMP_pressure;BME280_temperature;BME280_humidity;BME280_pressure;Samples;Min_cycle;Max_cycle;Signal;HPM_P1;HPM_P2
2022/11/22 00:02:20;;;;;;;26.20;16.15;;;4.80;99.90;;;;;;5003832;28;20085;-81
2022/11/22 00:04:46;;;;;;;22.30;15.65;;;4.80;99.90;;;;;;5004106;28;20045;-81
2022/11/22 00:07:12;;;;;;;22.92;14.68;;;4.80;99.90;;;;;;5003565;28;20030;-84
2022/11/22 00:09:37;;;;;;;24.40;14.27;;;4.80;99.90;;;;;;5001129;28;20049;-80
2022/11/22 00:12:03;;;;;;;30.73;15.23;;;4.80;99.90;;;;;;5003386;28;20558;-77
2022/11/22 00:14:28;;;;;;;21.45;14.85;;;4.80;99.90;;;;;;5002275;28;20608;-78
2022/11/22 00:16:54;;;;;;;18.83;12.23;;;4.80;99.90;;;;;;5003891;28;20096;-81
2022/11/22 00:19:20;;;;;;;24.10;13.25;;;4.70;99.90;;;;;;5003739;28;20045;-79
2022/11/22 00:21:45;;;;;;;15.98;13.60;;;4.80;99.90;;;;;;5002556;28;20080;-81
2022/11/22 00:24:12;;;;;;;21.48;12.82;;;4.80;99.90;;;;;;5002361;28;20050;-82
2022/11/22 00:26:37;;;;;;;29.35;13.23;;;4.80;99.90;;;;;;5003675;28;20489;-80
2022/11/22 00:29:03;;;;;;;25.55;12.52;;;4.70;99.90;;;;;;5002961;28;20046;-78
2022/11/22 00:31:29;;;;;;;27.10;12.60;;;4.80;99.90;;;;;;5035401;28;20794;-77
2022/11/22 00:33:54;;;;;;;17.45;12.18;;;4.80;99.90;;;;;;5003309;28;20091;-78
2022/11/22 00:36:20;;;;;;;22.08;12.98;;;4.80;99.90;;;;;;5002303;28;20128;-82
2022/11/22 00:38:46;;;;;;;20.33;11.30;;;4.80;99.90;;;;;;5001647;28;20050;-77
2022/11/22 00:41:11;;;;;;;17.50;12.90;;;4.80;99.90;;;;;;5034919;28;20045;-81
2022/11/22 00:43:37;;;;;;;24.10;12.23;;;4.80;99.90;;;;;;5002348;28;20117;-81
2022/11/22 00:46:03;;;;;;;17.60;11.70;;;4.80;99.90;;;;;;5001735;28;20452;-79
2022/11/22 00:48:28;;;;;;;25.05;13.57;;;4.80;99.90;;;;;;5003534;28;20482;-78
2022/11/22 00:50:54;;;;;;;24.58;12.18;;;4.80;99.90;;;;;;5018221;28;20121;-80
2022/11/22 00:53:21;;;;;;;17.40;11.32;;;4.80;99.90;;;;;;5001327;28;20050;-81
2022/11/22 00:55:46;;;;;;;20.42;12.57;;;4.80;99.90;;;;;;5001355;28;20053;-81
2022/11/22 00:58:12;;;;;;;17.33;11.40;;;4.80;99.90;;;;;;5001722;28;20041;-82
2022/11/22 01:00:37;;;;;;;13.20;9.60;;;4.90;99.90;;;;;;5002649;28;20038;-81
2022/11/22 01:03:03;;;;;;;17.25;11.50;;;4.80;99.90;;;;;;4985398;28;20054;-80
2022/11/22 01:05:29;;;;;;;18.70;10.55;;;4.80;99.90;;;;;;5003414;28;20042;-78
2022/11/22 01:07:54;;;;;;;15.68;9.85;;;4.80;99.90;;;;;;5000626;28;20069;-78
2022/11/22 01:10:20;;;;;;;16.83;10.07;;;4.80;99.90;;;;;;5003305;28;20081;-80
2022/11/22 01:12:46;;;;;;;27.55;11.98;;;4.80;99.90;;;;;;5005479;28;20155;-82
2022/11/22 01:15:11;;;;;;;18.48;13.73;;;4.80;99.90;;;;;;5004690;28;20519;-81
2022/11/22 01:17:37;;;;;;;16.80;10.70;;;4.80;99.90;;;;;;5038231;28;20046;-80
2022/11/22 01:20:03;;;;;;;17.70;10.95;;;4.80;99.90;;;;;;5005739;28;20140;-79
2022/11/22 01:22:28;;;;;;;17.55;10.30;;;4.80;99.90;;;;;;5006896;28;20152;-79
2022/11/22 01:24:54;;;;;;;13.48;10.07;;;4.70;99.90;;;;;;5005439;28;20455;-78
2022/11/22 01:27:20;;;;;;;14.55;9.10;;;4.80;99.90;;;;;;4994811;28;20506;-80
2022/11/22 01:29:45;;;;;;;15.82;9.68;;;4.80;99.90;;;;;;5006774;28;20056;-78
2022/11/22 01:32:11;;;;;;;19.77;12.30;;;4.80;99.90;;;;;;5004680;28;20069;-82
2022/11/22 01:34:36;;;;;;;13.32;9.23;;;4.80;99.90;;;;;;5006210;28;20038;-82
2022/11/22 01:37:02;;;;;;;17.02;10.38;;;4.70;99.90;;;;;;5004860;28;20100;-80
2022/11/22 01:39:27;;;;;;;17.25;10.20;;;4.70;99.90;;;;;;5005004;28;20105;-78
2022/11/22 01:41:53;;;;;;;14.57;10.80;;;4.70;99.90;;;;;;5005955;28;20408;-80
2022/11/22 01:44:26;;;;;;;13.48;10.40;;;4.80;99.90;;;;;;5005181;28;20038;-77
2022/11/22 01:47:03;;;;;;;17.83;11.25;;;4.80;99.90;;;;;;5005842;28;20045;-78
2022/11/22 01:49:34;;;;;;;17.20;11.55;;;4.80;99.90;;;;;;4988236;28;20080;-79
2022/11/22 01:52:06;;;;;;;17.85;11.40;;;4.70;99.90;;;;;;4987902;28;20053;-79
2022/11/22 01:54:34;;;;;;;13.65;9.63;;;4.80;99.90;;;;;;5004083;28;20062;-78
2022/11/22 01:57:07;;;;;;;19.42;11.52;;;4.80;99.90;;;;;;5005612;28;20041;-78
2022/11/22 01:59:34;;;;;;;;;;;4.80;99.90;;;;;;5005918;28;20485;-81
2022/11/22 02:02:00;;;;;;;23.40;11.00;;;4.80;99.90;;;;;;5005331;28;19976;-81
2022/11/22 02:04:27;;;;;;;19.90;10.05;;;4.80;99.90;;;;;;5078520;22;20044;-80
2022/11/22 02:07:02;;;;;;;19.65;11.23;;;4.80;99.90;;;;;;4985544;28;20567;-78
2022/11/22 02:09:28;;;;;;;21.70;10.00;;;4.80;99.90;;;;;;4985276;28;20038;-77
2022/11/22 02:11:57;;;;;;;29.25;11.48;;;4.80;99.90;;;;;;5001055;28;20054;-81
2022/11/22 02:14:27;;;;;;;16.98;9.30;;;4.80;99.90;;;;;;4984335;28;20381;-81
2022/11/22 02:16:52;;;;;;;19.83;10.38;;;4.80;99.90;;;;;;4985774;28;20520;-80
2022/11/22 02:19:40;;;;;;;17.60;12.38;;;4.80;99.90;;;;;;4986179;28;20050;-76
2022/11/22 02:22:20;;;;;;;18.42;10.35;;;4.80;99.90;;;;;;4985992;28;20072;-81
2022/11/22 02:24:54;;;;;;;20.88;9.52;;;4.80;99.90;;;;;;4983960;28;20117;-81
2022/11/22 02:27:19;;;;;;;13.82;10.50;;;4.90;99.90;;;;;;4967787;28;20085;-80
2022/11/22 02:29:45;;;;;;;10.30;8.95;;;4.90;99.90;;;;;;4966335;28;20077;-80
2022/11/22 02:32:11;;;;;;;14.13;9.65;;;4.80;99.90;;;;;;4982438;28;20472;-81
2022/11/22 02:34:47;;;;;;;21.58;10.25;;;4.80;99.90;;;;;;4985672;28;20093;-81
2022/11/22 02:37:18;;;;;;;12.63;9.13;;;4.90;99.90;;;;;;4967967;28;20489;-79
2022/11/22 02:39:46;;;;;;;18.10;11.27;;;4.90;99.90;;;;;;4985114;28;20045;-78
2022/11/22 02:42:12;;;;;;;18.58;9.55;;;4.90;99.90;;;;;;4985080;28;20042;-77
2022/11/22 02:44:40;;;;;;;16.42;10.73;;;4.90;99.90;;;;;;4984217;28;20081;-78
2022/11/22 02:47:05;;;;;;;11.65;9.98;;;4.90;99.90;;;;;;4985305;28;20046;-78
2022/11/22 02:49:31;;;;;;;17.23;9.90;;;4.90;99.90;;;;;;4984549;28;20093;-78
2022/11/22 02:51:57;;;;;;;17.60;10.52;;;4.90;99.90;;;;;;4985217;28;20046;-82
2022/11/22 02:54:22;;;;;;;17.73;10.52;;;4.90;99.90;;;;;;4982875;28;20049;-81
2022/11/22 02:56:48;;;;;;;15.02;10.05;;;4.90;99.90;;;;;;4985505;28;20069;-81
2022/11/22 02:59:13;;;;;;;19.38;10.93;;;4.90;99.90;;;;;;4967872;28;20099;-80
2022/11/22 03:01:40;;;;;;;14.45;9.18;;;4.90;99.90;;;;;;4985250;28;20034;-77
2022/11/22 03:04:05;;;;;;;13.77;9.23;;;4.90;99.90;;;;;;4985151;28;20082;-79
2022/11/22 03:06:31;;;;;;;17.98;9.25;;;4.90;99.90;;;;;;4983565;28;20093;-78
2022/11/22 03:08:56;;;;;;;17.38;10.60;;;4.90;99.90;;;;;;4984001;28;20056;-81
2022/11/22 03:11:23;;;;;;;14.70;11.68;;;4.90;99.90;;;;;;4984807;28;20176;-81
2022/11/22 03:13:48;;;;;;;17.00;11.10;;;4.90;99.90;;;;;;4983493;28;20135;-77
2022/11/22 03:16:14;;;;;;;15.80;9.02;;;4.90;99.90;;;;;;4984112;28;20113;-81
2022/11/22 03:18:39;;;;;;;20.13;10.95;;;4.90;99.90;;;;;;4984756;28;20818;-76
2022/11/22 03:21:07;;;;;;;16.73;10.32;;;5.00;99.90;;;;;;4984481;28;20046;-78
2022/11/22 03:23:33;;;;;;;37.88;13.38;;;4.90;99.90;;;;;;4984005;28;20519;-78
2022/11/22 03:26:05;;;;;;;14.30;11.38;;;4.90;99.90;;;;;;4975611;28;20047;-79
2022/11/22 03:28:30;;;;;;;19.83;12.77;;;5.00;99.90;;;;;;4965465;28;20034;-78
2022/11/22 03:30:56;;;;;;;14.35;10.23;;;5.00;99.90;;;;;;4965096;28;20039;-78
2022/11/22 03:33:22;;;;;;;15.20;9.52;;;4.90;99.90;;;;;;4965342;28;20043;-80
2022/11/22 03:35:47;;;;;;;13.25;10.43;;;5.00;99.90;;;;;;4964767;28;20497;-81
2022/11/22 03:38:13;;;;;;;15.35;10.45;;;5.00;99.90;;;;;;4963979;28;20050;-81
2022/11/22 03:40:38;;;;;;;17.63;10.43;;;5.00;99.90;;;;;;4963570;28;20043;-81
2022/11/22 03:43:04;;;;;;;15.38;8.90;;;5.00;99.90;;;;;;4964931;28;20035;-81
2022/11/22 03:45:30;;;;;;;17.85;10.40;;;4.90;99.90;;;;;;4980895;28;20047;-80
2022/11/22 03:47:56;;;;;;;16.20;11.40;;;5.00;99.90;;;;;;4984354;28;20519;-78
2022/11/22 03:50:22;;;;;;;18.67;12.45;;;5.00;99.90;;;;;;4967015;28;20052;-79
2022/11/22 03:52:48;;;;;;;26.38;11.70;;;5.00;99.90;;;;;;4983792;28;20070;-80
2022/11/22 03:55:14;;;;;;;20.35;9.95;;;5.00;99.90;;;;;;4984213;28;20157;-81
2022/11/22 03:57:40;;;;;;;17.13;10.85;;;4.90;99.90;;;;;;4984268;28;20126;-81
2022/11/22 04:00:06;;;;;;;13.25;10.35;;;5.00;99.90;;;;;;4982407;28;20514;-81
2022/11/22 04:02:32;;;;;;;13.60;10.15;;;5.00;99.90;;;;;;4984236;28;20507;-80
2022/11/22 04:04:57;;;;;;;22.65;11.95;;;5.00;99.90;;;;;;4983452;28;20081;-77
2022/11/22 04:07:23;;;;;;;16.75;12.40;;;5.00;99.90;;;;;;4983430;28;20746;-78
2022/11/22 04:09:48;;;;;;;23.85;12.43;;;5.00;99.90;;;;;;4982748;28;20519;-77
2022/11/22 04:12:14;;;;;;;14.25;10.70;;;5.00;99.90;;;;;;4982926;28;20054;-81
2022/11/22 04:23:29;;;;;;;16.17;12.48;;;5.00;99.90;;;;;;4981643;28;20057;-78
2022/11/22 04:25:55;;;;;;;20.85;11.57;;;5.00;99.90;;;;;;4973829;28;20112;-81
2022/11/22 04:28:23;;;;;;;14.50;10.43;;;5.00;99.90;;;;;;4964230;28;20155;-81
2022/11/22 04:33:34;;;;;;;15.13;10.25;;;5.00;99.90;;;;;;4964490;28;20133;-82
2022/11/22 04:36:00;;;;;;;18.10;12.10;;;5.00;99.90;;;;;;4964030;28;20043;-82
2022/11/22 04:38:26;;;;;;;21.50;11.73;;;5.10;99.90;;;;;;4963798;28;20077;-81
2022/11/22 04:40:51;;;;;;;18.52;10.75;;;5.00;99.90;;;;;;4963875;28;20042;-75
2022/11/22 04:46:13;;;;;;;18.10;11.77;;;5.00;99.90;;;;;;4983401;28;20516;-81
2022/11/22 04:48:39;;;;;;;20.35;13.00;;;5.10;99.90;;;;;;4987784;28;20078;-76
2022/11/22 04:53:50;;;;;;;15.80;12.38;;;5.10;99.90;;;;;;4985007;28;20093;-78
2022/11/22 04:56:16;;;;;;;14.38;10.57;;;5.10;99.90;;;;;;4970322;28;20528;-81
2022/11/22 04:58:42;;;;;;;19.85;11.20;;;5.10;99.90;;;;;;4987330;28;20117;-81
2022/11/22 05:01:08;;;;;;;14.18;10.40;;;5.10;99.90;;;;;;4986681;28;20517;-77
2022/11/22 05:03:33;;;;;;;20.23;13.65;;;5.10;99.90;;;;;;4987535;28;20050;-79
2022/11/22 05:06:04;;;;;;;12.95;11.35;;;5.10;99.90;;;;;;4986617;28;20057;-80
2022/11/22 05:08:30;;;;;;;20.20;12.02;;;5.10;99.90;;;;;;4986604;28;20887;-80
2022/11/22 05:10:56;;;;;;;24.50;11.77;;;5.20;99.90;;;;;;4987162;28;20141;-80
2022/11/22 05:13:23;;;;;;;29.23;13.00;;;5.10;99.90;;;;;;4986934;28;20548;-80
2022/11/22 05:15:50;;;;;;;16.13;11.65;;;5.20;99.90;;;;;;4986966;28;20048;-78
2022/11/22 05:18:17;;;;;;;18.63;11.27;;;5.20;99.90;;;;;;4986049;28;20049;-81
2022/11/22 05:20:43;;;;;;;22.58;11.07;;;5.20;99.90;;;;;;4985584;28;20053;-76
2022/11/22 05:25:52;;;;;;;15.35;11.15;;;5.20;99.90;;;;;;4979927;28;20054;-82
2022/11/22 05:28:18;;;;;;;14.45;11.35;;;5.20;99.90;;;;;;4967639;28;20118;-81
2022/11/22 05:30:43;;;;;;;14.95;10.35;;;5.20;99.90;;;;;;4966055;28;20046;-78
2022/11/22 05:33:09;;;;;;;15.70;13.90;;;5.30;99.90;;;;;;4967242;28;20109;-79
2022/11/22 05:35:34;;;;;;;18.98;12.95;;;5.20;99.90;;;;;;4967791;28;20046;-80
2022/11/22 05:38:00;;;;;;;22.83;13.35;;;5.20;99.90;;;;;;4979872;28;20412;-80
2022/11/22 05:40:26;;;;;;;21.30;12.35;;;5.30;99.90;;;;;;4985443;28;20045;-81
2022/11/22 05:42:52;;;;;;;20.73;11.65;;;5.30;99.90;;;;;;4986302;28;20480;-81
2022/11/22 05:45:18;;;;;;;19.85;11.98;;;5.30;99.90;;;;;;4969242;28;20125;-81
2022/11/22 05:47:44;;;;;;;19.58;12.30;;;5.30;99.90;;;;;;4969751;28;20160;-80
2022/11/22 05:50:10;;;;;;;18.00;11.35;;;5.40;99.90;;;;;;4986185;28;20091;-78
2022/11/22 05:52:35;;;;;;;15.30;12.20;;;5.30;99.90;;;;;;4983429;28;20484;-79
2022/11/22 05:55:01;;;;;;;13.95;11.65;;;5.30;99.90;;;;;;4986247;28;20045;-80
2022/11/22 05:57:27;;;;;;;20.25;11.13;;;5.40;99.90;;;;;;4985531;28;20085;-82
2022/11/22 05:59:53;;;;;;;25.73;12.65;;;5.40;99.90;;;;;;4985879;28;20042;-81
2022/11/22 06:02:19;;;;;;;19.60;9.75;;;5.40;99.90;;;;;;4984795;28;20188;-76
2022/11/22 06:04:45;;;;;;;20.92;11.27;;;5.40;99.90;;;;;;4986191;28;20112;-81
2022/11/22 06:07:10;;;;;;;16.50;9.43;;;5.40;99.90;;;;;;4984953;28;20117;-80
2022/11/22 06:09:36;;;;;;;15.10;9.77;;;5.40;99.90;;;;;;4986101;28;20042;-77
2022/11/22 06:12:01;;;;;;;19.20;12.00;;;5.40;99.90;;;;;;4985846;28;20529;-79
2022/11/22 06:14:27;;;;;;;14.23;9.25;;;5.30;99.90;;;;;;4985054;28;20042;-81
2022/11/22 06:16:53;;;;;;;14.30;10.27;;;5.30;99.90;;;;;;4981824;28;20041;-82
2022/11/22 06:19:18;;;;;;;21.15;11.27;;;5.30;99.90;;;;;;4980236;28;20045;-78
2022/11/22 06:21:44;;;;;;;18.40;11.45;;;5.30;99.90;;;;;;4977507;28;20188;-81
2022/11/22 06:24:10;;;;;;;16.73;9.70;;;5.20;99.90;;;;;;4986678;28;20037;-79
2022/11/22 06:26:36;;;;;;;15.88;9.63;;;5.20;99.90;;;;;;4979570;28;20133;-80
2022/11/22 06:29:01;;;;;;;13.85;8.63;;;5.10;99.90;;;;;;4975900;28;20039;-80
2022/11/22 06:31:28;;;;;;;11.10;8.30;;;5.10;99.90;;;;;;4980460;28;20125;-79
2022/11/22 06:33:56;;;;;;;15.95;8.95;;;5.10;99.90;;;;;;4979573;28;20519;-80
2022/11/22 06:36:27;;;;;;;9.77;7.43;;;5.00;99.90;;;;;;4981197;28;20046;-79
2022/11/22 06:38:53;;;;;;;15.67;8.60;;;5.00;99.90;;;;;;4984637;28;20038;-76
2022/11/22 06:41:24;;;;;;;13.25;7.20;;;5.00;99.90;;;;;;4982686;28;20117;-77
2022/11/22 06:43:51;;;;;;;13.18;7.72;;;4.90;99.90;;;;;;4974405;28;20038;-80
2022/11/22 06:46:18;;;;;;;11.40;7.68;;;4.90;99.90;;;;;;4976823;28;20069;-80
2022/11/22 06:48:45;;;;;;;39.35;8.02;;;4.90;99.90;;;;;;4983078;28;20050;-80
2022/11/22 06:51:12;;;;;;;21.15;8.18;;;4.80;99.90;;;;;;4978326;28;20100;-80
2022/11/22 06:53:38;;;;;;;12.77;7.97;;;4.80;99.90;;;;;;4975951;28;20066;-79
2022/11/22 06:56:11;;;;;;;19.88;8.30;;;4.80;99.90;;;;;;4983199;28;20039;-80
2022/11/22 06:58:37;;;;;;;12.80;8.57;;;4.80;99.90;;;;;;4980278;28;20066;-81
2022/11/22 07:01:11;;;;;;;14.18;6.93;;;4.80;99.90;;;;;;4980070;28;20043;-83
2022/11/22 07:03:38;;;;;;;8.80;6.30;;;4.80;99.90;;;;;;4981495;28;20042;-77
2022/11/22 07:06:05;;;;;;;14.18;6.65;;;4.80;99.90;;;;;;4981984;28;20072;-78
2022/11/22 07:08:31;;;;;;;16.23;9.18;;;4.80;99.90;;;;;;4973412;28;20054;-77
2022/11/22 07:11:18;;;;;;;29.23;9.07;;;4.80;99.90;;;;;;4964851;28;20493;-79
2022/11/22 07:13:44;;;;;;;15.90;6.32;;;4.80;99.90;;;;;;4970351;28;20073;-76
2022/11/22 07:16:12;;;;;;;13.75;7.93;;;4.70;99.90;;;;;;4978113;28;20047;-79
2022/11/22 07:18:38;;;;;;;11.50;6.20;;;4.80;99.90;;;;;;4970744;28;20034;-80
2022/11/22 07:21:06;;;;;;;16.67;7.18;;;4.70;99.90;;;;;;4982290;28;20056;-78
2022/11/22 07:23:32;;;;;;;10.30;6.13;;;4.70;99.90;;;;;;4981569;28;20050;-80
2022/11/22 07:25:57;;;;;;;10.63;6.22;;;4.70;99.90;;;;;;4975659;28;20190;-79
2022/11/22 07:28:23;;;;;;;8.07;6.43;;;4.70;99.90;;;;;;4989913;28;20072;-78
2022/11/22 07:30:49;;;;;;;10.57;6.45;;;4.70;99.90;;;;;;4983811;28;20128;-77
2022/11/22 07:33:15;;;;;;;11.73;6.95;;;4.70;99.90;;;;;;4983910;28;20536;-78
2022/11/22 07:35:40;;;;;;;8.93;6.10;;;4.70;99.90;;;;;;4983024;28;20046;-78
2022/11/22 07:38:06;;;;;;;13.32;5.82;;;4.70;99.90;;;;;;4982663;28;20340;-77
2022/11/22 07:40:32;;;;;;;8.15;5.30;;;4.70;99.90;;;;;;4984086;28;20122;-77
2022/11/22 07:42:57;;;;;;;14.20;7.85;;;4.70;99.90;;;;;;4983161;28;20052;-79
2022/11/22 07:45:23;;;;;;;8.43;4.60;;;4.70;99.90;;;;;;4982735;28;20045;-77
2022/11/22 07:47:48;;;;;;;14.43;5.50;;;4.60;99.90;;;;;;4983180;28;20042;-77
2022/11/22 07:50:14;;;;;;;7.25;4.75;;;4.60;99.90;;;;;;4984268;28;20050;-78
2022/11/22 07:52:40;;;;;;;8.27;5.18;;;4.60;99.90;;;;;;4981663;28;20405;-78
2022/11/22 07:55:06;;;;;;;10.20;4.93;;;4.60;99.90;;;;;;4984132;28;20069;-78
2022/11/22 07:57:32;;;;;;;15.57;4.32;;;4.60;99.90;;;;;;4984141;28;20046;-77
2022/11/22 08:00:01;;;;;;;8.65;4.85;;;4.60;99.90;;;;;;4998497;28;20551;-77
2022/11/22 08:02:26;;;;;;;7.45;4.47;;;4.70;99.90;;;;;;4982447;28;20131;-78
2022/11/22 08:04:52;;;;;;;14.90;4.85;;;4.70;99.90;;;;;;4983633;28;20133;-77
2022/11/22 08:07:18;;;;;;;9.40;5.63;;;4.70;99.90;;;;;;4982344;28;20054;-77
2022/11/22 08:09:44;;;;;;;6.75;4.88;;;4.70;99.90;;;;;;4982594;28;20046;-79
2022/11/22 08:12:09;;;;;;;6.72;4.18;;;4.80;99.90;;;;;;4982300;28;20054;-77
2022/11/22 08:14:35;;;;;;;10.00;5.00;;;4.80;99.90;;;;;;4982642;28;20046;-78
2022/11/22 08:17:01;;;;;;;6.82;4.00;;;4.90;99.90;;;;;;4983702;28;20046;-79
2022/11/22 08:19:26;;;;;;;9.90;5.45;;;4.90;99.90;;;;;;4982448;28;20046;-78
2022/11/22 08:21:52;;;;;;;11.02;3.83;;;4.90;99.90;;;;;;4985067;28;20508;-77
2022/11/22 08:24:18;;;;;;;8.15;4.78;;;5.00;99.90;;;;;;4988433;28;20061;-78
2022/11/22 08:26:44;;;;;;;8.63;4.78;;;5.00;99.90;;;;;;4986394;28;20660;-77
2022/11/22 08:29:11;;;;;;;12.98;4.82;;;5.00;99.90;;;;;;4987738;28;20751;-77
2022/11/22 08:31:38;;;;;;;5.35;3.95;;;5.00;99.90;;;;;;4987976;28;20377;-77
2022/11/22 08:34:04;;;;;;;6.57;4.38;;;5.00;99.90;;;;;;4985985;28;20038;-78
2022/11/22 08:36:30;;;;;;;9.85;3.60;;;5.00;99.90;;;;;;4987413;28;20046;-78
2022/11/22 08:38:56;;;;;;;8.30;3.83;;;5.00;99.90;;;;;;4985059;28;20046;-77
2022/11/22 08:41:22;;;;;;;8.77;3.42;;;5.10;99.90;;;;;;4986569;28;20058;-77
2022/11/22 08:43:49;;;;;;;6.93;3.53;;;5.10;99.90;;;;;;4986276;28;20488;-79
2022/11/22 08:46:15;;;;;;;9.48;4.07;;;5.10;99.90;;;;;;4987936;28;20123;-77
2022/11/22 08:48:41;;;;;;;10.82;3.97;;;5.10;99.90;;;;;;4986167;28;20050;-76
2022/11/22 08:51:09;;;;;;;8.43;5.40;;;5.10;99.90;;;;;;4987176;28;20401;-77
2022/11/22 08:53:37;;;;;;;8.65;3.75;;;5.10;99.90;;;;;;4986684;28;20072;-76
2022/11/22 08:56:04;;;;;;;8.05;4.45;;;5.20;99.90;;;;;;4986805;28;20038;-77
2022/11/22 08:58:32;;;;;;;8.20;5.07;;;5.10;99.90;;;;;;4986063;28;20639;-77
2022/11/22 09:01:06;;;;;;;13.18;5.07;;;5.20;99.90;;;;;;4985924;28;20413;-77
2022/11/22 09:03:34;;;;;;;18.02;4.68;;;5.20;99.90;;;;;;4985909;28;20042;-77
2022/11/22 09:06:11;;;;;;;6.65;3.45;;;5.20;99.90;;;;;;4985573;28;20077;-77
2022/11/22 09:08:37;;;;;;;5.03;2.72;;;5.20;99.90;;;;;;4986208;28;20042;-78
2022/11/22 09:11:11;;;;;;;5.90;3.65;;;5.20;99.90;;;;;;4986615;28;20042;-77
2022/11/22 09:13:37;;;;;;;18.73;4.22;;;5.20;99.90;;;;;;4985361;28;20038;-77
2022/11/22 09:16:10;;;;;;;8.07;4.13;;;5.20;99.90;;;;;;4985345;28;20054;-77
2022/11/22 09:18:37;;;;;;;5.30;3.75;;;5.20;99.90;;;;;;4985479;28;20034;-77
2022/11/22 09:21:05;;;;;;;5.40;3.10;;;5.30;99.90;;;;;;4985814;28;20042;-76
2022/11/22 09:23:32;;;;;;;8.90;3.78;;;5.30;99.90;;;;;;4985959;28;20052;-77
2022/11/22 09:26:09;;;;;;;4.28;3.00;;;5.30;99.90;;;;;;4961766;28;20130;-77
2022/11/22 09:28:35;;;;;;;6.20;2.38;;;5.30;99.90;;;;;;4967415;28;20421;-77
2022/11/22 09:31:03;;;;;;;3.40;3.00;;;5.30;99.90;;;;;;4965628;28;20042;-78
2022/11/22 09:33:29;;;;;;;8.50;4.47;;;5.30;99.90;;;;;;4965191;28;20397;-79
2022/11/22 09:36:06;;;;;;;14.95;3.75;;;5.30;99.90;;;;;;4965312;28;20042;-78
2022/11/22 09:38:33;;;;;;;6.75;4.20;;;5.30;99.90;;;;;;4966119;28;20090;-78
2022/11/22 09:41:17;;;;;;;3.58;3.15;;;5.30;99.90;;;;;;4965600;28;20632;-78
2022/11/22 09:44:07;;;;;;;4.32;2.45;;;5.30;99.90;;;;;;4966720;28;20055;-76
2022/11/22 09:46:39;;;;;;;6.20;4.15;;;5.30;99.90;;;;;;4965329;28;20047;-77
2022/11/22 09:49:19;;;;;;;6.00;2.97;;;5.40;99.90;;;;;;4966626;28;20035;-77
2022/11/22 09:51:56;;;;;;;7.72;3.78;;;5.40;99.90;;;;;;4966681;28;20070;-77
2022/11/22 09:54:33;;;;;;;7.28;4.15;;;5.40;99.90;;;;;;4949134;28;20133;-77
2022/11/22 09:57:02;;;;;;;6.72;3.45;;;5.40;99.90;;;;;;4965089;28;20050;-76
2022/11/22 09:59:33;;;;;;;5.18;2.85;;;5.40;99.90;;;;;;4964933;28;20058;-79
2022/11/22 10:02:06;;;;;;;3.13;2.40;;;5.40;99.90;;;;;;4948901;28;20121;-79
2022/11/22 10:04:37;;;;;;;3.83;2.60;;;5.50;99.90;;;;;;4965700;28;20047;-78
2022/11/22 10:07:13;;;;;;;12.68;3.92;;;5.50;99.90;;;;;;4965671;28;20046;-79
2022/11/22 10:09:53;;;;;;;4.85;3.10;;;5.50;99.90;;;;;;4949395;28;20046;-77
2022/11/22 10:12:33;;;;;;;6.47;2.80;;;5.50;99.90;;;;;;4964968;28;20100;-78
2022/11/22 10:15:35;;;;;;;8.23;4.05;;;5.50;99.90;;;;;;4948714;28;20046;-78
2022/11/22 10:18:10;;;;;;;4.53;2.90;;;5.60;99.90;;;;;;4965980;28;20101;-78
2022/11/22 10:20:40;;;;;;;5.45;2.63;;;5.60;99.90;;;;;;4966012;28;20117;-78
2022/11/22 10:23:20;;;;;;;6.00;2.60;;;5.60;99.90;;;;;;4963852;28;20125;-77
2022/11/22 10:26:00;;;;;;;5.70;2.58;;;5.60;99.90;;;;;;4971069;28;20042;-77
2022/11/22 10:28:41;;;;;;;3.25;2.60;;;5.60;99.90;;;;;;4984233;28;20048;-78
2022/11/22 10:31:11;;;;;;;3.17;2.88;;;5.60;99.90;;;;;;4983484;28;20034;-77
2022/11/22 10:33:47;;;;;;;4.28;2.28;;;5.60;99.90;;;;;;4985985;28;20039;-77
2022/11/22 10:36:21;;;;;;;9.48;2.85;;;5.60;99.90;;;;;;4984852;28;20121;-78
2022/11/22 10:39:06;;;;;;;3.95;2.05;;;5.70;99.90;;;;;;4980427;28;20082;-78
2022/11/22 10:42:19;;;;;;;11.57;2.55;;;5.70;99.90;;;;;;4967705;28;20066;-77
2022/11/22 10:45:14;;;;;;;;;;;5.70;99.90;;;;;;4922299;29;20059;-78
2022/11/22 10:47:57;;;;;;;5.65;2.53;;;5.70;99.90;;;;;;4890296;29;19926;-79
2022/11/22 10:50:28;;;;;;;3.08;1.67;;;5.70;99.90;;;;;;4966496;28;20133;-77
2022/11/22 10:53:01;;;;;;;5.75;3.08;;;5.80;99.90;;;;;;4984099;28;20468;-78
2022/11/22 10:56:05;;;;;;;22.23;3.50;;;5.80;99.90;;;;;;4985288;28;20046;-77
2022/11/22 10:58:48;;;;;;;3.42;2.20;;;5.80;99.90;;;;;;4975431;28;20098;-77
2022/11/22 11:01:36;;;;;;;3.83;2.72;;;5.80;99.90;;;;;;4983728;28;20129;-77
2022/11/22 11:04:03;;;;;;;4.10;2.83;;;5.80;99.90;;;;;;4985080;28;20074;-77
2022/11/22 11:06:35;;;;;;;6.07;2.03;;;5.80;99.90;;;;;;4982428;28;20058;-78
2022/11/22 11:09:09;;;;;;;4.55;2.42;;;5.80;99.90;;;;;;4983604;28;20042;-79
2022/11/22 11:11:37;;;;;;;4.20;2.42;;;5.80;99.90;;;;;;4967568;28;20849;-77
2022/11/22 11:14:18;;;;;;;13.98;4.18;;;5.80;99.90;;;;;;4983898;28;20396;-78
2022/11/22 11:16:44;;;;;;;6.20;3.60;;;5.80;99.90;;;;;;4984861;28;20038;-77
2022/11/22 11:19:09;;;;;;;3.58;2.22;;;5.80;99.90;;;;;;4981742;28;20387;-76
2022/11/22 11:21:35;;;;;;;3.60;2.10;;;5.90;99.90;;;;;;4983325;28;20054;-78
2022/11/22 11:24:00;;;;;;;6.13;2.58;;;5.90;99.90;;;;;;4974047;28;20054;-79
2022/11/22 11:26:29;;;;;;;4.32;2.15;;;5.90;99.90;;;;;;4967258;28;20094;-77
2022/11/22 11:29:16;;;;;;;2.88;1.80;;;6.00;99.90;;;;;;4975918;28;20043;-77
2022/11/22 11:31:47;;;;;;;2.13;1.60;;;6.00;99.90;;;;;;4982884;28;20491;-78
2022/11/22 11:34:27;;;;;;;14.43;2.92;;;6.00;99.90;;;;;;4983086;28;20045;-77
2022/11/22 11:36:55;;;;;;;5.90;2.55;;;6.00;99.90;;;;;;4966044;28;20433;-79
2022/11/22 11:39:32;;;;;;;2.92;1.70;;;6.10;99.90;;;;;;4983255;28;20074;-79
2022/11/22 11:41:59;;;;;;;11.80;2.10;;;6.10;99.90;;;;;;4984225;28;20559;-79
2022/11/22 11:44:30;;;;;;;4.85;2.60;;;6.10;99.90;;;;;;4984306;28;20042;-79
2022/11/22 11:46:56;;;;;;;5.60;2.50;;;6.10;99.90;;;;;;4966122;28;20101;-78
2022/11/22 11:49:25;;;;;;;4.97;2.47;;;6.20;99.90;;;;;;4979356;28;20054;-82
2022/11/22 11:52:00;;;;;;;9.05;1.95;;;6.20;99.90;;;;;;4981938;28;20072;-82
2022/11/22 11:54:38;;;;;;;4.47;1.48;;;6.20;99.90;;;;;;4976747;28;20552;-79
2022/11/22 11:57:10;;;;;;;3.92;2.13;;;6.30;99.90;;;;;;4965404;28;20057;-79
2022/11/22 11:59:38;;;;;;;5.37;2.53;;;6.30;99.90;;;;;;4982177;28;20046;-80
2022/11/22 12:02:32;;;;;;;1.77;1.60;;;6.30;99.90;;;;;;4981443;28;20042;-78
2022/11/22 12:05:26;;;;;;;3.13;2.63;;;6.30;99.90;;;;;;4980220;28;20704;-80
2022/11/22 12:07:52;;;;;;;8.65;3.05;;;6.40;99.90;;;;;;4950059;28;20085;-80
2022/11/22 12:10:39;;;;;;;2.30;1.70;;;6.40;99.90;;;;;;4973185;28;20097;-78
2022/11/22 12:13:15;;;;;;;3.28;1.75;;;6.40;99.90;;;;;;4982319;28;20089;-78
2022/11/22 12:16:00;;;;;;;1.88;1.70;;;6.40;99.90;;;;;;4966846;28;20133;-80
2022/11/22 12:18:36;;;;;;;5.47;2.55;;;6.40;99.90;;;;;;4983006;28;20054;-77
2022/11/22 12:21:31;;;;;;;1.90;1.45;;;6.40;99.90;;;;;;4981315;28;20053;-77
2022/11/22 12:24:29;;;;;;;2.60;2.17;;;6.50;99.90;;;;;;4983583;28;20047;-78
2022/11/22 12:26:55;;;;;;;3.83;1.90;;;6.40;99.90;;;;;;4964566;28;20082;-78
2022/11/22 12:29:21;;;;;;;6.95;2.30;;;6.50;99.90;;;;;;4982534;28;20092;-77
2022/11/22 12:32:04;;;;;;;3.55;2.03;;;6.50;99.90;;;;;;4984141;28;20054;-79
2022/11/22 12:34:47;;;;;;;2.85;1.90;;;6.50;99.90;;;;;;4982240;28;20648;-78
2022/11/22 12:37:35;;;;;;;3.72;1.92;;;6.50;99.90;;;;;;4977924;28;20544;-82
2022/11/22 12:40:16;;;;;;;3.25;2.05;;;6.60;99.90;;;;;;4973571;28;20082;-80
2022/11/22 12:42:45;;;;;;;2.72;1.90;;;6.60;99.90;;;;;;4975567;28;20050;-79
2022/11/22 12:45:18;;;;;;;1.65;1.25;;;6.60;99.90;;;;;;4981586;28;20050;-76
2022/11/22 12:47:46;;;;;;;3.45;1.65;;;6.60;99.90;;;;;;4983429;28;20081;-81
2022/11/22 12:50:27;;;;;;;1.92;1.15;;;6.60;99.90;;;;;;4982848;28;20560;-85
2022/11/22 12:53:06;;;;;;;4.10;1.15;;;6.60;99.90;;;;;;4989356;28;20078;-81
2022/11/22 12:55:58;;;;;;;3.65;1.55;;;6.60;99.90;;;;;;4979246;28;20047;-82
2022/11/22 12:58:48;;;;;;;13.10;1.80;;;6.70;99.90;;;;;;4979093;28;20724;-79
2022/11/22 13:01:23;;;;;;;1.67;1.50;;;6.70;99.90;;;;;;4979269;28;20137;-77
2022/11/22 13:04:10;;;;;;;2.25;1.73;;;6.70;99.90;;;;;;4984828;28;20133;-77
2022/11/22 13:06:48;;;;;;;6.57;1.55;;;6.70;99.90;;;;;;4977448;28;20525;-78
2022/11/22 13:09:19;;;;;;;2.50;1.48;;;6.70;99.90;;;;;;4977508;28;20733;-83
2022/11/22 13:12:00;;;;;;;6.22;2.10;;;6.80;99.90;;;;;;4986082;28;20051;-81
2022/11/22 13:14:43;;;;;;;1.92;1.42;;;6.80;99.90;;;;;;4969659;28;20042;-79
2022/11/22 13:17:11;;;;;;;6.55;2.47;;;6.80;99.90;;;;;;4976633;28;20045;-78
2022/11/22 13:19:44;;;;;;;1.95;1.35;;;6.80;99.90;;;;;;4984792;28;20126;-79
2022/11/22 13:22:43;;;;;;;7.38;2.55;;;6.80;99.90;;;;;;4986728;28;20053;-81